North Potrero (448) Station Data

Red Flag Warning: No
Fire Weather Zone: 250
SDGE Region: Mountain Empire
Lat/Lon: 32.63/-116.585

Observations

Time Wind Speed/Gust Temp(F) RH Fuel Moist Fuel Temp(F) Dewpt(F) Tmax(F) Tmin(F) Accum Precip 10-min Precip SL Press(mb)
3/29 8:00am 2 6 G 8 60° 27% - - 26° 60.4° 50.7° - - -
3/29 7:50am 338 6 G 10 58° 28% - - 25° 59.9° 50.7° - - -
3/29 7:40am 337 7 G 10 57° 26% - - 23° 59.3° 50.7° - - -
3/29 7:30am 341 8 G 12 57° 25% - - 21° 59.3° 50.7° - - -
3/29 7:20am 330 6 G 10 56° 24% - - 20° 59.3° 50.7° - - -
3/29 7:10am 4 8 G 10 57° 22% - - 19° 59.3° 50.7° - - -
3/29 7:00am 20 8 G 10 57° 22% - - 19° 59.3° 50.7° - - -
3/29 6:50am 330 5 G 9 56° 23% - - 19° 59.3° 50.7° - - -
3/29 6:40am 12 3 G 6 57° 22% - - 18° 59.3° 50.7° - - -
3/29 6:30am 24 4 G 6 57° 22% - - 18° 59.3° 50.7° - - -
3/29 6:20am 352 2 G 5 55° 24% - - 19° 59.3° 50.7° - - -
3/29 6:10am 351 4 G 7 57° 22% - - 18° 59.3° 50.7° - - -
3/29 6:00am 22 4 G 6 58° 20% - - 18° 59.3° 50.7° - - -
3/29 5:50am 31 3 G 4 56° 23% - - 18° 58° 50.7° - - -
3/29 5:40am 32 3 G 4 53° 26% - - 19° 58° 50.7° - - -
3/29 5:30am 0 3 G 5 52° 28% - - 20° 58° 50.7° - - -
3/29 5:20am 13 4 G 5 54° 26% - - 20° 58° 50.7° - - -
3/29 5:10am 359 3 G 5 54° 26% - - 20° 58° 50.7° - - -
3/29 5:00am 7 3 G 5 53° 27% - - 20° 58° 50.7° - - -
3/29 4:50am 4 4 G 6 53° 27% - - 20° 58° 50.7° - - -
3/29 4:40am 2 4 G 8 53° 27% - - 20° 58° 50.7° - - -
3/29 4:30am 21 4 G 6 55° 24% - - 19° 58° 52.1° - - -
3/29 4:20am 11 4 G 5 55° 24% - - 19° 58° 52.1° - - -
3/29 4:10am 30 4 G 5 56° 23% - - 19° 58° 52.1° - - -
3/29 4:00am 42 4 G 6 56° 24% - - 19° 58° 52.1° - - -
3/29 3:50am 3 3 G 4 56° 24% - - 19° 58° 52.1° - - -
3/29 3:40am 27 4 G 6 56° 23% - - 19° 58° 52.1° - - -
3/29 3:30am 9 5 G 6 54° 26% - - 20° 58° 52.1° - - -
3/29 3:20am 6 4 G 6 54° 26% - - 20° 58° 52.1° - - -
3/29 3:10am 38 5 G 6 55° 25% - - 19° 58° 52.1° - - -
3/29 3:00am 10 4 G 5 55° 25% - - 19° 58° 52.1° - - -
3/29 2:50am 355 4 G 5 56° 23% - - 19° 58° 52.1° - - -
3/29 2:40am 14 3 G 4 56° 23% - - 18° 58° 52.1° - - -
3/29 2:30am 356 2 G 4 55° 23% - - 19° 58° 52.1° - - -
3/29 2:20am 360 4 G 7 55° 25% - - 20° 58° 52.1° - - -
3/29 2:10am 3 4 G 5 53° 27% - - 20° 58° 52.1° - - -
3/29 2:00am 19 6 G 8 55° 25% - - 20° 58° 52.1° - - -
3/29 1:50am 12 7 G 8 54° 25% - - 20° 58° 52.1° - - -
3/29 1:40am 346 5 G 7 56° 24% - - 19° 58° 52.1° - - -
3/29 1:30am 29 7 G 10 55° 25% - - 20° 58° 52.1° - - -
3/29 1:20am 15 7 G 10 54° 27% - - 20° 58° 52.1° - - -
3/29 1:10am 10 5 G 6 55° 25% - - 20° 58° 53.8° - - -
3/29 1:00am 10 5 G 7 56° 24% - - 20° 58° 54.8° - - -
3/29 12:50am 14 6 G 8 56° 24% - - 19° 58° 55.2° - - -
3/29 12:40am 30 6 G 7 56° 23% - - 19° 58° 55.2° - - -
3/29 12:30am 14 5 G 7 57° 23% - - 20° 58° 55.2° - - -
3/29 12:20am 360 4 G 6 56° 26% - - 22° 57.4° 55.2° - - -
3/29 12:10am 359 5 G 7 57° 26% - - 22° 57.4° 55.8° - - -
3/29 12:00am 3 6 G 7 55° 27% - - 22° 68° 39.6° - - -
3/28 11:50pm 16 5 G 7 55° 31% - - 25° 68° 39.6° - - -
3/28 11:40pm 10 5 G 7 54° 39% - - 30° 68° 39.6° - - -
3/28 11:30pm 16 2 G 3 54° 43% - - 31° 68° 39.6° - - -
3/28 11:20pm 14 2 G 4 53° 51% - - 36° 68° 39.6° - - -
3/28 11:10pm 27 3 G 4 53° 52% - - 36° 68° 39.6° - - -
3/28 11:00pm 49 3 G 4 51° 70% - - 41° 68° 39.6° - - -
3/28 10:50pm 57 3 G 4 49° 81% - - 43° 68° 39.6° - - -
3/28 10:40pm 356 4 G 5 51° 77% - - 43° 68° 39.6° - - -
3/28 10:30pm 83 1 G 2 52° 74% - - 44° 68° 39.6° - - -
3/28 10:20pm 57 2 G 3 51° 77% - - 44° 68° 39.6° - - -
3/28 10:10pm 105 1 G 2 50° 81% - - 44° 68° 39.6° - - -
3/28 10:00pm 353 2 G 4 52° 75% - - 44° 68° 39.6° - - -
3/28 9:50pm 70 3 G 4 52° 74% - - 44° 68° 39.6° - - -
3/28 9:40pm 127 2 G 4 53° 73% - - 44° 68° 39.6° - - -
3/28 9:30pm 107 2 G 4 53° 73% - - 44° 68° 39.6° - - -
3/28 9:20pm 94 1 G 3 53° 72% - - 44° 68° 39.6° - - -
3/28 9:10pm 29 1 G 3 53° 74% - - 45° 68° 39.6° - - -
3/28 9:00pm 52 1 G 2 54° 70% - - 44° 68° 39.6° - - -
3/28 8:50pm 77 1 G 2 54° 71% - - 45° 68° 39.6° - - -
3/28 8:40pm 37 1 G 4 53° 75% - - 45° 68° 39.6° - - -
3/28 8:30pm 349 1 G 4 55° 67% - - 44° 68° 39.6° - - -
3/28 8:20pm 101 2 G 3 55° 67% - - 44° 68° 39.6° - - -
3/28 8:10pm 146 3 G 5 55° 67% - - 44° 68° 39.6° - - -
3/28 8:00pm 115 3 G 6 55° 67% - - 44° 68° 39.6° - - -
3/28 7:50pm 162 3 G 5 55° 67% - - 44° 68° 39.6° - - -
3/28 7:40pm 174 4 G 6 56° 66% - - 45° 68° 39.6° - - -
3/28 7:30pm 192 4 G 6 56° 65% - - 45° 68° 39.6° - - -
3/28 7:20pm 193 4 G 7 57° 63% - - 45° 68° 39.6° - - -
3/28 7:10pm 159 4 G 5 58° 61% - - 45° 68° 39.6° - - -
3/28 7:00pm 185 3 G 5 59° 58% - - 45° 68° 39.6° - - -
3/28 6:50pm 220 3 G 5 60° 57% - - 45° 68° 39.6° - - -
3/28 6:40pm 192 5 G 8 61° 55% - - 44° 68° 39.6° - - -
3/28 6:30pm 211 5 G 7 62° 53% - - 44° 68° 39.6° - - -
3/28 6:20pm 203 6 G 9 63° 51% - - 44° 68° 39.6° - - -
3/28 6:10pm 236 7 G 10 63° 50% - - 44° 68° 39.6° - - -
3/28 6:00pm 227 8 G 13 63° 49% - - 44° 68° 39.6° - - -
3/28 5:50pm 236 9 G 12 64° 48% - - 44° 68° 39.6° - - -
3/28 5:40pm 242 7 G 11 64° 47% - - 44° 68° 39.6° - - -
3/28 5:30pm 240 8 G 12 65° 46% - - 44° 68° 39.6° - - -
3/28 5:20pm 224 9 G 13 65° 45% - - 43° 68° 39.6° - - -
3/28 5:10pm 228 8 G 11 65° 43% - - 42° 68° 39.6° - - -
3/28 5:00pm 211 9 G 13 66° 41% - - 42° 68° 39.6° - - -
3/28 4:50pm 230 8 G 12 66° 38% - - 40° 68° 39.6° - - -
3/28 4:40pm 202 8 G 12 67° 35% - - 39° 68° 39.6° - - -
3/28 4:30pm 198 8 G 13 67° 35% - - 38° 68° 39.6° - - -
3/28 4:20pm 203 8 G 13 67° 33% - - 37° 68° 39.6° - - -
3/28 4:10pm 210 5 G 10 67° 32% - - 36° 68° 39.6° - - -
3/28 4:00pm 204 7 G 11 67° 32% - - 36° 67.9° 39.6° - - -
3/28 3:50pm 212 8 G 12 67° 33% - - 37° 67.9° 39.6° - - -
3/28 3:40pm 207 7 G 12 67° 33% - - 37° 67.9° 39.6° - - -
3/28 3:30pm 207 6 G 12 67° 31% - - 36° 67.9° 39.6° - - -
3/28 3:20pm 194 6 G 11 67° 30% - - 35° 67.7° 39.6° - - -
3/28 3:10pm 202 6 G 11 67° 30% - - 35° 67.7° 39.6° - - -
3/28 3:00pm 191 7 G 12 67° 29% - - 34° 67.7° 39.6° - - -
3/28 2:50pm 193 6 G 12 66° 29% - - 34° 67.7° 39.6° - - -
3/28 2:40pm 205 6 G 11 67° 29% - - 34° 67.7° 39.6° - - -
3/28 2:30pm 212 8 G 12 67° 30% - - 34° 67.7° 39.6° - - -
3/28 2:20pm 201 8 G 19 67° 30% - - 34° 67.7° 39.6° - - -
3/28 2:10pm 237 6 G 12 67° 28% - - 33° 67.7° 39.6° - - -
3/28 2:00pm 237 7 G 12 67° 28% - - 32° 67.3° 39.6° - - -
3/28 1:50pm 208 6 G 10 66° 28% - - 32° 67.3° 39.6° - - -
3/28 1:40pm 221 7 G 11 66° 27% - - 31° 66.6° 39.6° - - -
3/28 1:30pm 228 6 G 13 66° 26% - - 30° 66.4° 39.6° - - -
3/28 1:20pm 243 9 G 12 66° 26% - - 30° 66.3° 39.6° - - -
3/28 1:10pm 229 8 G 14 66° 28% - - 32° 66.3° 39.6° - - -
3/28 1:00pm 217 6 G 10 65° 27% - - 30° 66.1° 39.6° - - -
3/28 12:50pm 271 5 G 8 65° 27% - - 30° 66.1° 39.6° - - -
3/28 12:40pm 218 8 G 12 65° 29% - - 32° 66.1° 39.6° - - -
3/28 12:30pm 203 8 G 14 64° 29% - - 32° 65.3° 39.6° - - -
3/28 12:20pm 212 7 G 13 64° 29% - - 31° 65.3° 39.6° - - -
3/28 12:10pm 187 8 G 13 64° 29% - - 31° 64.6° 39.6° - - -
3/28 12:00pm 196 7 G 11 64° 28% - - 30° 64.3° 39.6° - - -
3/28 11:50am 191 7 G 12 64° 29% - - 30° 64.1° 39.6° - - -
3/28 11:40am 208 6 G 11 63° 29% - - 30° 64° 39.6° - - -
3/28 11:30am 201 6 G 11 63° 29% - - 30° 63.7° 39.6° - - -
3/28 11:20am 189 8 G 12 63° 29% - - 30° 63.4° 39.6° - - -
3/28 11:10am 205 9 G 15 63° 30% - - 31° 63.4° 39.6° - - -
3/28 11:00am 207 7 G 12 62° 28% - - 29° 62.9° 39.6° - - -
3/28 10:50am 217 7 G 9 62° 28% - - 29° 62.8° 39.6° - - -
3/28 10:40am 204 6 G 9 62° 29% - - 30° 62.8° 39.6° - - -
3/28 10:30am 210 6 G 9 61° 29% - - 29° 62.3° 39.6° - - -
3/28 10:20am 197 5 G 7 62° 29% - - 29° 62.3° 39.6° - - -
3/28 10:10am 224 5 G 8 61° 31% - - 30° 61.8° 39.6° - - -
3/28 10:00am 216 5 G 8 60° 33% - - 31° 60.8° 39.6° - - -
3/28 9:50am 219 6 G 9 59° 35% - - 32° 60.8° 39.6° - - -
3/28 9:40am 218 4 G 6 59° 34% - - 31° 60.8° 39.6° - - -
3/28 9:30am 220 4 G 7 58° 34% - - 30° 60.8° 39.6° - - -
3/28 9:20am 216 2 G 3 58° 36% - - 31° 60.8° 39.6° - - -
3/28 9:10am 230 1 G 2 60° 35% - - 32° 60.8° 39.6° - - -
3/28 9:00am 78 0 G 1 58° 36% - - 32° 60.5° 39.6° - - -
3/28 8:50am 38 0 G 1 55° 43% - - 33° 56.4° 39.6° - - -
3/28 8:40am 9 2 G 3 52° 56% - - 37° 53.6° 39.6° - - -
3/28 8:30am 16 2 G 3 51° 62% - - 39° 51.9° 39.6° - - -
3/28 8:20am 149 1 G 3 51° 54% - - 35° 51.9° 39.6° - - -
3/28 8:10am 173 2 G 4 49° 52% - - 32° 50.7° 39.6° - - -
3/28 8:00am 184 3 G 4 47° 57% - - 32° 49° 39.6° - - -
3/28 7:50am 194 3 G 6 45° 63% - - 33° 49° 39.6° - - -
3/28 7:40am 99 4 G 6 43° 64% - - 32° 49° 39.6° - - -
3/28 7:30am 349 5 G 6 45° 56% - - 30° 49° 39.6° - - -
3/28 7:20am 18 6 G 7 46° 52% - - 30° 49° 39.6° - - -
3/28 7:10am 25 6 G 7 45° 59% - - 31° 49° 39.6° - - -
3/28 7:00am 58 4 G 6 44° 60% - - 31° 49° 39.6° - - -
3/28 6:50am 214 2 G 4 44° 63% - - 32° 49° 39.6° - - -
3/28 6:40am 32 3 G 5 45° 60% - - 32° 49° 39.6° - - -
3/28 6:30am 45 3 G 5 44° 67% - - 34° 49° 39.6° - - -
3/28 6:20am 145 1 G 3 42° 73% - - 34° 49° 39.6° - - -
3/28 6:10am 297 1 G 4 43° 72% - - 34° 49° 39.6° - - -
3/28 6:00am 346 4 G 6 44° 69% - - 34° 49° 39.6° - - -